EW1230 Weather Reports


Display with metric or nautical units.
time (UTC)temp
F
wind
direction
speed
MPH
gust
MPH
rain 1hr
in
rain 24hr
in
rain mn
in
humidity
%
barometer
mb
20191014130723 87 17 2.0 3.0 0.00 0.00 0.00 2 1035.0
20191014125721 87 27 2.0 4.0 0.00 0.00 0.00 2 1035.0
20191014124719 86 321 1.0 5.0 0.00 0.00 0.00 2 1035.0
20191014123723 87 37 3.0 3.0 0.00 0.00 0.00 2 1035.0
20191014122719 87 7 1.0 4.0 0.00 0.00 0.00 2 1036.0
20191014121723 87 18 2.0 7.0 0.00 0.00 0.00 2 1036.0
20191014120722 87 308 3.0 4.0 0.00 0.00 0.00 2 1036.0
20191014115722 88 346 2.0 4.0 0.00 0.00 0.00 2 1036.0
20191014114721 87 18 0.0 5.0 0.00 0.00 0.00 2 1036.0
20191014113724 88 291 2.0 4.0 0.00 0.00 0.00 2 1036.0
20191014112722 0 322 0.0 1.0 0.00 0.00 0.00 1037.0
20191014111725 0 16 4.0 5.0 0.00 0.00 0.00 1037.0
20191014110723 87 304 3.0 3.0 0.00 0.00 0.00 2 1037.0
20191014105724 0 24 4.0 4.0 0.00 0.00 0.00 1037.0
20191014104724 86 13 2.0 4.0 0.00 0.00 0.00 2 1037.0
20191014103720 86 49 2.0 2.0 0.00 0.00 0.00 2 1037.0
20191014102719 0 322 2.0 3.0 0.00 0.00 0.00 1037.0
20191014101723 85 38 3.0 7.0 0.00 0.00 0.00 2 1037.0
20191014100724 0 337 2.0 3.0 0.00 0.00 0.00 1036.0
20191014095723 84 0.0 7.0 0.00 0.00 0.00 2 1037.0
20191014094724 84 17 6.0 6.0 0.00 0.00 0.00 2 1037.0
20191014093717 84 35 4.0 6.0 0.00 0.00 0.00 2 1036.0
20191014092719 82 11 4.0 5.0 0.00 0.00 0.00 2 1037.0
20191014091718 82 354 3.0 5.0 0.00 0.00 0.00 2 1037.0
20191014090723 81 10 4.0 7.0 0.00 0.00 0.00 2 1037.0
20191014085720 80 131 1.0 3.0 0.00 0.00 0.00 2 1037.0
20191014084721 80 2 1.0 6.0 0.00 0.00 0.00 2 1037.0
20191014083723 79 303 4.0 6.0 0.00 0.00 0.00 2 1037.0
20191014082722 78 0 6.0 9.0 0.00 0.00 0.00 2 1038.0
20191014081719 78 16 4.0 8.0 0.00 0.00 0.00 2 1038.0
20191014080718 77 45 3.0 3.0 0.00 0.00 0.00 2 1037.0
20191014075724 76 4 6.0 10.0 0.00 0.00 0.00 2 1037.0
20191014074718 76 23 3.0 6.0 0.00 0.00 0.00 3 1037.0
20191014073723 75 33 4.0 4.0 0.00 0.00 0.00 11 1037.0
20191014072723 74 18 6.0 6.0 0.00 0.00 0.00 16 1038.0
20191014071722 73 350 4.0 7.0 0.00 0.00 0.00 21 1038.0
20191014070719 72 13 4.0 6.0 0.00 0.00 0.00 22 1038.0
20191014065719 71 41 4.0 7.0 0.00 0.00 0.00 23 1037.0
20191014064717 70 45 1.0 3.0 0.00 0.00 0.00 25 1037.0
20191014063719 69 22 6.0 6.0 0.00 0.00 0.00 25 1037.0
20191014062724 68 5 3.0 6.0 0.00 0.00 0.00 27 1037.0
20191014061724 0 24 2.0 7.0 0.00 0.00 0.00 1037.0
20191014060721 67 42 5.0 8.0 0.00 0.00 0.00 29 1037.0
20191014055720 66 18 5.0 7.0 0.00 0.00 0.00 30 1037.0
20191014054719 0 39 2.0 7.0 0.00 0.00 0.00 1037.0
20191014053725 65 26 4.0 9.0 0.00 0.00 0.00 32 1037.0
20191014052723 64 49 4.0 6.0 0.00 0.00 0.00 33 1037.0
20191014051724 64 52 3.0 4.0 0.00 0.00 0.00 33 1037.0
20191014050722 63 52 2.0 3.0 0.00 0.00 0.00 33 1037.0
20191014045724 63 50 3.0 6.0 0.00 0.00 0.00 33 1037.0
20191014044724 62 28 3.0 3.0 0.00 0.00 0.00 31 1037.0
20191014043719 62 29 2.0 4.0 0.00 0.00 0.00 29 1037.0
20191014042725 62 6 3.0 6.0 0.00 0.00 0.00 27 1037.0
20191014041723 62 42 1.0 3.0 0.00 0.00 0.00 26 1037.0
20191014040720 61 33 3.0 3.0 0.00 0.00 0.00 25 1037.0
20191014035720 62 45 1.0 1.0 0.00 0.00 0.00 24 1037.0
20191014034723 62 5 3.0 4.0 0.00 0.00 0.00 19 1037.0
20191014033720 62 40 2.0 3.0 0.00 0.00 0.00 11 1037.0
20191014032717 62 37 2.0 3.0 0.00 0.00 0.00 6 1036.0
20191014031722 63 67 1.0 2.0 0.00 0.00 0.00 5 1036.0
20191014030716 63 40 1.0 2.0 0.00 0.00 0.00 5 1036.0
20191014025725 63 270 1.0 3.0 0.00 0.00 0.00 5 1036.0
20191014024721 63 50 2.0 6.0 0.00 0.00 0.00 5 1036.0
20191014023723 0 67 1.0 4.0 0.00 0.00 0.00 1036.0
20191014022721 65 0.0 4.0 0.00 0.00 0.00 4 1035.0
20191014021718 65 63 2.0 4.0 0.00 0.00 0.00 4 1035.0
20191014020723 0 39 4.0 4.0 0.00 0.00 0.00 1036.0
20191014015724 65 37 2.0 5.0 0.00 0.00 0.00 4 1037.0
20191014014723 0 33 1.0 2.0 0.00 0.00 0.00 1037.0
20191014013723 0 72 1.0 4.0 0.00 0.00 0.00 1036.0
20191014012722 66 0.0 0.0 0.00 0.00 0.00 4 1036.0
20191014011721 66 67 0.0 2.0 0.00 0.00 0.00 4 1036.0
20191014010722 66 0.0 0.0 0.00 0.00 0.00 4 1036.0
20191014005723 67 45 2.0 4.0 0.00 0.00 0.00 4 1036.0
20191014004724 67 60 2.0 4.0 0.00 0.00 0.00 4 1036.0
20191014003723 67 29 2.0 3.0 0.00 0.00 0.00 4 1036.0
20191014002722 68 96 2.0 3.0 0.00 0.00 0.00 4 1036.0
20191014001722 68 39 4.0 4.0 0.00 0.00 0.00 4
20191014000720 0 42 2.0 3.0 0.00 0.00 0.00 1035.0
20191013235718 68 37 4.0 5.0 0.00 0.00 0.00 4 1036.0
20191013234717 68 13 0.0 4.0 0.00 0.00 0.00 4 1036.0
20191013233723 68 70 4.0 4.0 0.00 0.00 0.00 4 1036.0
20191013232719 68 0.0 0.0 0.00 0.00 0.00 4 1036.0
20191013231723 69 37 1.0 1.0 0.00 0.00 0.00 4 1036.0
20191013230722 69 55 3.0 4.0 0.00 0.00 0.00 4 1036.0
20191013225717 68 33 1.0 3.0 0.00 0.00 0.00 4 1036.0
20191013224719 68 0.0 0.0 0.00 0.00 0.00 4 1036.0
20191013223723 68 0.0 0.0 0.00 0.00 0.00 4 1037.0
20191013222723 68 0.0 0.0 0.00 0.00 0.00 4 1037.0
20191013221720 68 0.0 0.0 0.00 0.00 0.00 4 1037.0
20191013220723 68 0.0 0.0 0.00 0.00 0.00 4 1037.0
20191013215723 0 247 0.0 1.0 0.00 0.00 0.00 1036.0
20191013214720 69 0.0 1.0 0.00 0.00 0.00 4 1036.0
20191013213720 69 180 1.0 4.0 0.00 0.00 0.00 4 1035.0
20191013212722 0 11 2.0 4.0 0.00 0.00 0.00 1034.0
20191013211724 68 359 1.0 4.0 0.00 0.00 0.00 4 1034.0
20191013210723 67 22 1.0 2.0 0.00 0.00 0.00 4 1035.0
20191013205723 0 0.0 0.0 0.00 0.00 0.00 1035.0
20191013204722 65 0.0 0.0 0.00 0.00 0.00 4 1035.0
20191013203720 65 0.0 0.0 0.00 0.00 0.00 4 1035.0
20191013202718 65 0.0 0.0 0.00 0.00 0.00 4 1035.0
20191013201723 65 0.0 0.0 0.00 0.00 0.00 4 1035.0
20191013200718 66 0.0 0.0 0.00 0.00 0.00 4 1036.0
20191013195720 0 0.0 0.0 0.00 0.00 0.00 1035.0
20191013194723 66 0.0 0.0 0.00 0.00 0.00 4 1035.0
20191013193722 67 0.0 0.0 0.00 0.00 0.00 4 1036.0
20191013192720 67 0.0 0.0 0.00 0.00 0.00 4 1035.0
20191013191721 68 0.0 0.0 0.00 0.00 0.00 4 1035.0
20191013190723 68 0.0 0.0 0.00 0.00 0.00 4 1035.0
20191013185723 69 0.0 0.0 0.00 0.00 0.00 4 1034.0
20191013184724 70 0.0 0.0 0.00 0.00 0.00 3 1034.0
20191013183723 70 0.0 0.0 0.00 0.00 0.00 3 1034.0
20191013182718 70 0.0 0.0 0.00 0.00 0.00 3 1034.0
20191013181717 70 0.0 0.0 0.00 0.00 0.00 3 1034.0
20191013180723 71 0.0 0.0 0.00 0.00 0.00 3 1035.0
20191013175717 70 0.0 0.0 0.00 0.00 0.00 3 1035.0
20191013174724 70 0.0 0.0 0.00 0.00 0.00 3 1035.0
20191013173724 0 0.0 0.0 0.00 0.00 0.00 1035.0
20191013172723 71 0.0 0.0 0.00 0.00 0.00 3 1035.0
20191013171720 0 0.0 0.0 0.00 0.00 0.00 1035.0
20191013170737 72 0.0 0.0 0.00 0.00 0.00 3 1034.0
20191013165719 73 0.0 0.0 0.00 0.00 0.00 2 1034.0
20191013164724 0 337 0.0 4.0 0.00 0.00 0.00 1034.0
20191013163722 0 0.0 0.0 0.00 0.00 0.00 1034.0
20191013162724 76 0.0 0.0 0.00 0.00 0.00 2 1034.0
20191013161723 0 0.0 0.0 0.00 0.00 0.00 1034.0
20191013160722 78 0.0 0.0 0.00 0.00 0.00 2 1034.0
20191013155720 78 0.0 0.0 0.00 0.00 0.00 2
20191013154719 79 0.0 0.0 0.00 0.00 0.00 2
20191013153723 0 0.0 0.0 0.00 0.00 0.00 1034.0
20191013152723 81 0.0 0.0 0.00 0.00 0.00 2 1034.0
20191013151723 82 0.0 0.0 0.00 0.00 0.00 2 1034.0
20191013150719 82 0.0 2.0 0.00 0.00 0.00 2 1034.0
20191013145722 83 0.0 1.0 0.00 0.00 0.00 2 1034.0
20191013144725 84 0.0 1.0 0.00 0.00 0.00 2 1034.0
20191013143719 84 265 1.0 2.0 0.00 0.00 0.00 2 1034.0
20191013142721 84 0.0 2.0 0.00 0.00 0.00 2 1034.0
20191013141725 84 0.0 0.0 0.00 0.00 0.00 2 1034.0
20191013140718 85 0.0 0.0 0.00 0.00 0.00 2 1033.0
20191013135726 85 67 1.0 1.0 0.00 0.00 0.00 2 1034.0
20191013134723 84 0.0 0.0 0.00 0.00 0.00 2 1034.0
20191013133717 84 0.0 0.0 0.00 0.00 0.00 2 1034.0
20191013132718 85 0.0 1.0 0.00 0.00 0.00 2 1034.0
20191013131725 86 0.0 0.0 0.00 0.00 0.00 2 1034.0